createdAt,value
2023-06-19T00:00:14.816Z,16.96
2023-06-19T00:02:43.642Z,16.86
2023-06-19T00:05:11.475Z,16.82
2023-06-19T00:07:39.282Z,16.78
2023-06-19T00:10:07.350Z,16.78
2023-06-19T00:12:35.201Z,16.99
2023-06-19T00:15:04.055Z,16.71
2023-06-19T00:17:31.879Z,16.86
2023-06-19T00:19:59.602Z,16.87
2023-06-19T00:22:27.468Z,16.79
2023-06-19T00:24:55.268Z,16.98
2023-06-19T00:27:23.379Z,16.99
2023-06-19T00:29:54.196Z,16.94
2023-06-19T00:32:22.034Z,16.89
2023-06-19T00:34:49.857Z,16.80
2023-06-19T00:37:17.652Z,16.83
2023-06-19T00:39:45.363Z,16.68
2023-06-19T00:42:13.231Z,16.73
2023-06-19T00:44:41.304Z,16.73
2023-06-19T00:47:09.091Z,16.82
2023-06-19T00:49:36.856Z,16.79
2023-06-19T00:52:05.045Z,16.67
2023-06-19T00:54:32.850Z,16.66
2023-06-19T00:57:02.173Z,16.74
2023-06-19T00:59:30.697Z,16.77
2023-06-19T01:01:58.691Z,16.79
2023-06-19T01:04:26.789Z,16.88
2023-06-19T01:06:59.103Z,16.87
2023-06-19T01:09:34.904Z,16.87
2023-06-19T01:12:09.707Z,16.91
2023-06-19T01:14:40.689Z,16.83
2023-06-19T01:17:08.562Z,16.81
2023-06-19T01:19:36.403Z,16.90
2023-06-19T01:22:05.876Z,16.95
2023-06-19T01:24:33.644Z,16.84
2023-06-19T01:27:02.935Z,16.82
2023-06-19T01:29:30.688Z,16.77
2023-06-19T01:32:09.925Z,16.49
2023-06-19T01:34:40.012Z,16.71
2023-06-19T01:37:08.866Z,16.80
2023-06-19T01:39:38.200Z,16.66
2023-06-19T01:42:06.056Z,16.74
2023-06-19T01:44:33.900Z,16.78
2023-06-19T01:47:07.777Z,16.48
2023-06-19T01:49:35.903Z,16.55
2023-06-19T01:52:05.486Z,16.42
2023-06-19T01:54:33.289Z,16.14
2023-06-19T01:57:01.560Z,16.30
2023-06-19T01:59:29.321Z,16.48
2023-06-19T02:01:57.144Z,16.48
2023-06-19T02:04:24.914Z,16.59
2023-06-19T02:06:52.745Z,16.58
2023-06-19T02:09:20.464Z,16.47
2023-06-19T02:11:48.306Z,16.45
2023-06-19T02:14:16.070Z,16.47
2023-06-19T02:16:44.764Z,16.31
2023-06-19T02:19:12.709Z,15.92
2023-06-19T02:21:40.524Z,16.25
2023-06-19T02:24:08.447Z,16.36
2023-06-19T02:26:36.249Z,16.36
2023-06-19T02:29:04.007Z,16.17
2023-06-19T02:31:32.329Z,16.24
2023-06-19T02:34:00.135Z,16.23
2023-06-19T02:36:27.971Z,16.01
2023-06-19T02:38:55.737Z,15.88
2023-06-19T02:41:23.900Z,16.00
2023-06-19T02:43:51.715Z,15.88
2023-06-19T02:46:20.667Z,15.84
2023-06-19T02:48:48.518Z,16.03
2023-06-19T02:51:17.051Z,16.09
2023-06-19T02:53:46.199Z,15.96
2023-06-19T02:56:13.948Z,15.97
2023-06-19T02:58:42.387Z,16.03
2023-06-19T03:01:10.287Z,16.07
2023-06-19T03:03:38.940Z,16.01
2023-06-19T03:06:07.544Z,16.11
2023-06-19T03:08:36.253Z,16.06
2023-06-19T03:11:06.820Z,16.12
2023-06-19T03:13:53.889Z,16.02
2023-06-19T03:16:21.957Z,15.93
2023-06-19T03:18:53.193Z,15.84
2023-06-19T03:21:23.780Z,15.99
2023-06-19T03:23:54.335Z,15.83
2023-06-19T03:26:25.988Z,15.87
2023-06-19T03:28:55.479Z,15.86
2023-06-19T03:31:25.291Z,15.73
2023-06-19T03:33:53.531Z,15.73
2023-06-19T03:36:24.075Z,15.78
2023-06-19T03:38:55.476Z,15.82
2023-06-19T03:41:28.671Z,15.85
2023-06-19T03:43:58.588Z,16.00
2023-06-19T03:46:26.809Z,15.95
2023-06-19T03:48:55.139Z,15.96
2023-06-19T03:51:22.904Z,16.07
2023-06-19T03:53:52.170Z,16.12
2023-06-19T03:56:20.519Z,16.16
2023-06-19T03:58:49.642Z,16.19
2023-06-19T04:01:17.452Z,16.28
2023-06-19T04:03:45.297Z,16.20
2023-06-19T04:06:13.112Z,16.29
2023-06-19T04:08:41.556Z,16.26
2023-06-19T04:11:13.660Z,16.25
2023-06-19T04:13:41.667Z,16.38
2023-06-19T04:16:09.806Z,16.07
2023-06-19T04:18:38.059Z,16.28
2023-06-19T04:21:06.018Z,16.48
2023-06-19T04:23:34.195Z,16.51
2023-06-19T04:26:01.998Z,16.47
2023-06-19T04:28:29.902Z,16.56
2023-06-19T04:31:01.572Z,16.62
2023-06-19T04:33:30.287Z,16.60
2023-06-19T04:35:58.106Z,16.47
2023-06-19T04:38:25.904Z,16.64
2023-06-19T04:40:55.065Z,16.66
2023-06-19T04:43:25.754Z,16.62
2023-06-19T04:45:53.820Z,16.78
2023-06-19T04:48:25.997Z,16.57
2023-06-19T04:50:54.188Z,16.78
2023-06-19T04:53:22.494Z,16.71
2023-06-19T04:55:50.906Z,16.66
2023-06-19T04:58:18.773Z,16.76
2023-06-19T05:00:52.226Z,17.02
2023-06-19T05:03:20.546Z,17.10
2023-06-19T05:05:48.376Z,17.19
2023-06-19T05:08:16.189Z,17.32
2023-06-19T05:10:46.474Z,17.43
2023-06-19T05:13:15.202Z,17.44
2023-06-19T05:15:44.031Z,17.46
2023-06-19T05:18:11.915Z,17.66
2023-06-19T05:20:39.682Z,17.69
2023-06-19T05:23:08.786Z,17.69
2023-06-19T05:25:36.529Z,17.82
2023-06-19T05:28:06.157Z,17.81
2023-06-19T05:30:34.345Z,17.91
2023-06-19T05:33:02.333Z,17.95
2023-06-19T05:35:31.490Z,18.23
2023-06-19T05:37:59.291Z,18.16
2023-06-19T05:40:27.676Z,18.22
2023-06-19T05:42:56.860Z,18.28
2023-06-19T05:45:24.651Z,18.21
2023-06-19T05:47:52.410Z,18.54
2023-06-19T05:50:20.169Z,18.81
2023-06-19T05:52:49.008Z,18.87
2023-06-19T05:55:16.840Z,18.87
2023-06-19T05:57:44.677Z,18.88
2023-06-19T06:00:15.443Z,18.97
2023-06-19T06:02:43.354Z,18.99
2023-06-19T06:05:12.914Z,19.14
2023-06-19T06:07:41.616Z,19.26
2023-06-19T06:10:10.380Z,19.42
2023-06-19T06:12:38.401Z,19.52
2023-06-19T06:15:08.243Z,19.29
2023-06-19T06:17:36.634Z,19.77
2023-06-19T06:20:13.895Z,19.79
2023-06-19T06:22:42.318Z,19.84
2023-06-19T06:25:13.272Z,19.67
2023-06-19T06:27:42.304Z,19.94
2023-06-19T06:30:12.887Z,19.92
2023-06-19T06:32:40.828Z,19.97
2023-06-19T06:35:08.745Z,20.02
2023-06-19T06:37:36.636Z,20.49
2023-06-19T06:40:10.514Z,20.29
2023-06-19T06:42:39.416Z,20.60
2023-06-19T06:45:09.419Z,20.77
2023-06-19T06:47:37.326Z,20.99
2023-06-19T06:50:05.542Z,20.83
2023-06-19T06:52:33.525Z,20.32
2023-06-19T06:55:01.293Z,20.62
2023-06-19T06:57:29.236Z,20.86
2023-06-19T06:59:56.942Z,21.09
2023-06-19T07:02:24.871Z,21.37
2023-06-19T07:04:53.413Z,21.39
2023-06-19T07:07:22.044Z,21.38
2023-06-19T07:09:49.845Z,21.50
2023-06-19T07:12:17.620Z,21.53
2023-06-19T07:14:46.436Z,21.37
2023-06-19T07:17:14.302Z,21.91
2023-06-19T07:19:42.471Z,22.32
2023-06-19T07:22:10.220Z,22.28
2023-06-19T07:24:38.246Z,22.30
2023-06-19T07:27:06.466Z,22.20
2023-06-19T07:29:34.274Z,22.59
2023-06-19T07:32:05.154Z,22.55
2023-06-19T07:34:34.965Z,22.84
2023-06-19T07:37:03.895Z,23.18
2023-06-19T07:39:32.317Z,23.15
2023-06-19T07:42:01.192Z,23.05
2023-06-19T07:44:29.134Z,22.84
2023-06-19T07:46:56.986Z,23.37
2023-06-19T07:49:24.855Z,23.14
2023-06-19T07:51:52.577Z,23.12
2023-06-19T07:54:20.437Z,22.77
2023-06-19T07:56:48.240Z,23.20
2023-06-19T07:59:16.215Z,23.05
2023-06-19T08:01:45.083Z,23.47
2023-06-19T08:04:12.984Z,23.51
2023-06-19T08:06:40.741Z,23.61
2023-06-19T08:09:08.602Z,23.69
2023-06-19T08:11:38.388Z,23.69
2023-06-19T08:14:06.329Z,23.90
2023-06-19T08:16:34.210Z,23.87
2023-06-19T08:19:03.260Z,24.33
2023-06-19T08:21:31.503Z,24.53
2023-06-19T08:24:00.187Z,24.29
2023-06-19T08:26:28.043Z,24.53
2023-06-19T08:28:56.136Z,24.18
2023-06-19T08:31:28.310Z,24.77
2023-06-19T08:33:56.516Z,24.42
2023-06-19T08:36:25.635Z,24.92
2023-06-19T08:38:54.007Z,24.71
2023-06-19T08:41:21.782Z,25.32
2023-06-19T08:43:49.675Z,25.30
2023-06-19T08:46:20.906Z,25.19
2023-06-19T08:48:52.153Z,25.48
2023-06-19T08:51:20.056Z,25.33
2023-06-19T08:53:49.181Z,24.89
2023-06-19T08:56:16.915Z,25.26
2023-06-19T08:58:44.828Z,25.57
2023-06-19T09:01:13.533Z,25.47
2023-06-19T09:03:41.417Z,25.42
2023-06-19T09:06:09.948Z,25.72
2023-06-19T09:08:38.898Z,25.83
2023-06-19T09:11:09.112Z,25.65
2023-06-19T09:13:38.558Z,25.03
2023-06-19T09:16:08.068Z,25.71
2023-06-19T09:18:46.128Z,24.98
2023-06-19T09:21:19.494Z,25.47
2023-06-19T09:23:47.772Z,25.78
2023-06-19T09:26:17.766Z,25.76
2023-06-19T09:28:45.780Z,26.02
2023-06-19T09:31:13.771Z,25.93
2023-06-19T09:33:41.734Z,26.23
2023-06-19T09:36:09.549Z,26.24
2023-06-19T09:38:39.446Z,25.75
2023-06-19T09:41:09.851Z,25.69
2023-06-19T09:43:44.279Z,25.63
2023-06-19T09:46:13.456Z,25.53
2023-06-19T09:48:46.025Z,26.02
2023-06-19T09:51:20.807Z,25.41
2023-06-19T09:53:52.986Z,26.04
2023-06-19T09:56:23.303Z,26.04
2023-06-19T09:58:52.110Z,26.24
2023-06-19T10:01:20.325Z,26.43
2023-06-19T10:03:48.184Z,26.35
2023-06-19T10:06:17.160Z,26.51
2023-06-19T10:08:45.783Z,26.66
2023-06-19T10:11:13.763Z,26.70
2023-06-19T10:13:42.103Z,27.01
2023-06-19T10:16:23.848Z,26.97
2023-06-19T10:18:51.740Z,27.18
2023-06-19T10:21:20.373Z,26.68
2023-06-19T10:23:56.129Z,27.27
2023-06-19T10:26:36.343Z,26.91
2023-06-19T10:29:15.290Z,27.07
2023-06-19T10:31:44.082Z,26.51
2023-06-19T10:34:13.046Z,27.04
2023-06-19T10:36:41.096Z,26.42
2023-06-19T10:39:10.027Z,26.74
2023-06-19T10:41:40.893Z,27.58
2023-06-19T10:44:14.532Z,27.58
2023-06-19T10:46:42.520Z,26.08
2023-06-19T10:49:12.436Z,26.66
2023-06-19T10:51:41.346Z,26.69
2023-06-19T10:54:09.206Z,26.88
2023-06-19T10:56:37.172Z,26.74
2023-06-19T10:59:10.412Z,27.12
2023-06-19T11:01:39.653Z,27.00
2023-06-19T11:04:08.225Z,26.56
2023-06-19T11:06:37.460Z,26.77
2023-06-19T11:09:06.302Z,26.93
2023-06-19T11:11:41.030Z,26.27
2023-06-19T11:14:09.437Z,26.55
2023-06-19T11:16:42.598Z,27.03
2023-06-19T11:19:14.525Z,26.89
2023-06-19T11:21:50.034Z,26.62
2023-06-19T11:24:18.161Z,26.44
2023-06-19T11:26:53.399Z,26.90
2023-06-19T11:29:23.044Z,26.38
2023-06-19T11:31:51.599Z,26.82
2023-06-19T11:34:23.388Z,26.53
2023-06-19T11:36:52.197Z,26.29
2023-06-19T11:39:21.094Z,26.31
2023-06-19T11:41:49.241Z,26.73
2023-06-19T11:44:17.097Z,26.54
2023-06-19T11:46:45.045Z,26.36
2023-06-19T11:49:13.357Z,26.35
2023-06-19T11:51:42.029Z,26.47
2023-06-19T11:54:10.609Z,26.59
2023-06-19T11:56:39.335Z,26.56
2023-06-19T11:59:07.127Z,25.69
2023-06-19T12:01:35.550Z,26.58
2023-06-19T12:04:03.699Z,26.98
2023-06-19T12:06:32.044Z,26.53
2023-06-19T12:09:00.285Z,26.40
2023-06-19T12:11:28.067Z,26.48
2023-06-19T12:13:57.173Z,26.25
2023-06-19T12:16:25.034Z,26.54
2023-06-19T12:18:53.921Z,26.72
2023-06-19T12:21:34.108Z,26.55
2023-06-19T12:24:04.244Z,26.30
2023-06-19T12:26:32.245Z,26.44
2023-06-19T12:29:00.048Z,26.40
2023-06-19T12:31:27.901Z,26.59
2023-06-19T12:33:56.972Z,26.63
2023-06-19T12:36:26.308Z,26.27
2023-06-19T12:38:54.921Z,25.83
2023-06-19T12:41:22.705Z,26.06
2023-06-19T12:43:50.475Z,25.82
2023-06-19T12:46:18.338Z,26.00
2023-06-19T12:48:51.376Z,25.87
2023-06-19T12:51:19.420Z,26.18
2023-06-19T12:53:47.258Z,25.82
2023-06-19T12:56:15.041Z,26.05
2023-06-19T12:58:42.929Z,25.52
2023-06-19T13:01:10.757Z,25.80
2023-06-19T13:03:38.696Z,26.29
2023-06-19T13:06:06.672Z,25.95
2023-06-19T13:08:34.410Z,25.98
2023-06-19T13:11:02.257Z,26.09
2023-06-19T13:13:30.072Z,26.42
2023-06-19T13:15:57.952Z,26.56
2023-06-19T13:18:25.781Z,26.40
2023-06-19T13:20:53.624Z,26.40
2023-06-19T13:23:21.349Z,26.21
2023-06-19T13:25:49.187Z,26.71
2023-06-19T13:28:17.240Z,25.89
2023-06-19T13:30:45.106Z,25.68
2023-06-19T13:33:13.263Z,25.98
2023-06-19T13:35:41.120Z,25.92
2023-06-19T13:38:09.133Z,25.91
2023-06-19T13:40:36.961Z,25.89
2023-06-19T13:43:07.262Z,26.27
2023-06-19T13:45:35.800Z,26.44
2023-06-19T13:48:03.658Z,26.48
2023-06-19T13:50:31.522Z,26.65
2023-06-19T13:52:59.507Z,26.82
2023-06-19T13:55:27.395Z,26.56
2023-06-19T13:57:55.160Z,26.44
2023-06-19T14:00:23.211Z,26.39
2023-06-19T14:02:51.415Z,26.39
2023-06-19T14:05:19.451Z,25.89
2023-06-19T14:07:47.283Z,25.80
2023-06-19T14:10:15.165Z,26.16
2023-06-19T14:12:42.929Z,26.60
2023-06-19T14:15:10.914Z,26.59
2023-06-19T14:17:38.758Z,26.19
2023-06-19T14:20:07.282Z,26.40
2023-06-19T14:22:35.904Z,26.43
2023-06-19T14:25:03.704Z,26.52
2023-06-19T14:27:31.729Z,26.08
2023-06-19T14:29:59.542Z,26.58
2023-06-19T14:32:27.390Z,26.19
2023-06-19T14:34:55.209Z,26.00
2023-06-19T14:37:23.120Z,26.35
2023-06-19T14:39:50.890Z,26.10
2023-06-19T14:42:18.705Z,26.10
2023-06-19T14:44:46.671Z,26.35
2023-06-19T14:47:14.544Z,25.90
2023-06-19T14:49:42.328Z,25.82
2023-06-19T14:52:10.142Z,26.13
2023-06-19T14:54:38.758Z,26.06
2023-06-19T14:57:06.896Z,26.41
2023-06-19T14:59:34.661Z,26.15
2023-06-19T15:02:03.925Z,26.16
2023-06-19T15:04:32.031Z,25.54
2023-06-19T15:06:59.953Z,25.97
2023-06-19T15:09:27.983Z,26.20
2023-06-19T15:11:55.870Z,26.27
2023-06-19T15:14:23.634Z,26.00
2023-06-19T15:16:51.469Z,26.30
2023-06-19T15:19:19.302Z,26.26
2023-06-19T15:21:47.116Z,26.17
2023-06-19T15:24:15.065Z,26.39
2023-06-19T15:26:42.867Z,25.90
2023-06-19T15:29:11.506Z,26.30
2023-06-19T15:31:39.388Z,25.54
2023-06-19T15:34:07.188Z,25.70
2023-06-19T15:36:35.858Z,25.81
2023-06-19T15:39:03.678Z,25.56
2023-06-19T15:41:31.496Z,25.63
2023-06-19T15:43:59.316Z,25.73
2023-06-19T15:46:27.150Z,25.82
2023-06-19T15:48:55.688Z,26.13
2023-06-19T15:51:23.873Z,26.22
2023-06-19T15:53:51.662Z,26.11
2023-06-19T15:56:19.429Z,25.57
2023-06-19T15:58:47.146Z,25.66
2023-06-19T16:01:15.041Z,25.91
2023-06-19T16:03:42.879Z,25.80
2023-06-19T16:06:10.707Z,26.07
2023-06-19T16:08:38.412Z,25.94
2023-06-19T16:11:06.520Z,25.59
2023-06-19T16:13:34.460Z,26.02
2023-06-19T16:16:02.336Z,25.97
2023-06-19T16:18:30.178Z,26.00
2023-06-19T16:20:58.061Z,26.17
2023-06-19T16:23:25.918Z,26.16
2023-06-19T16:25:53.727Z,26.13
2023-06-19T16:28:21.582Z,26.22
2023-06-19T16:30:49.630Z,26.12
2023-06-19T16:33:18.083Z,26.15
2023-06-19T16:35:45.918Z,26.12
2023-06-19T16:38:13.654Z,25.79
2023-06-19T16:40:41.546Z,25.72
2023-06-19T16:43:10.896Z,25.93
2023-06-19T16:45:38.751Z,25.88
2023-06-19T16:48:06.528Z,26.02
2023-06-19T16:50:36.274Z,25.87
2023-06-19T16:53:04.299Z,25.95
2023-06-19T16:55:32.156Z,25.72
2023-06-19T16:57:59.897Z,25.62
2023-06-19T17:00:27.670Z,25.56
2023-06-19T17:02:57.914Z,25.49
2023-06-19T17:05:27.731Z,25.29
2023-06-19T17:07:55.742Z,25.27
2023-06-19T17:10:24.268Z,25.35
2023-06-19T17:12:52.403Z,25.21
2023-06-19T17:15:20.211Z,25.09
2023-06-19T17:17:48.084Z,25.01
2023-06-19T17:20:15.876Z,24.98
2023-06-19T17:22:43.721Z,25.07
2023-06-19T17:25:11.532Z,25.02
2023-06-19T17:27:39.364Z,24.78
2023-06-19T17:30:07.704Z,24.87
2023-06-19T17:32:35.613Z,24.77
2023-06-19T17:35:05.674Z,24.53
2023-06-19T17:37:33.467Z,24.11
2023-06-19T17:40:01.768Z,23.94
2023-06-19T17:42:29.656Z,23.91
2023-06-19T17:44:57.547Z,23.83
2023-06-19T17:47:25.442Z,23.61
2023-06-19T17:49:53.596Z,23.43
2023-06-19T17:52:21.371Z,23.39
2023-06-19T17:54:54.325Z,23.57
2023-06-19T17:57:22.295Z,23.49
2023-06-19T17:59:50.153Z,23.27
2023-06-19T18:02:19.474Z,23.05
2023-06-19T18:04:47.467Z,22.71
2023-06-19T18:07:16.670Z,22.75
2023-06-19T18:09:48.011Z,22.89
2023-06-19T18:12:16.188Z,22.71
2023-06-19T18:14:45.002Z,22.62
2023-06-19T18:17:13.098Z,22.57
2023-06-19T18:19:41.753Z,22.40
2023-06-19T18:22:09.633Z,22.11
2023-06-19T18:24:37.490Z,22.22
2023-06-19T18:27:07.544Z,22.05
2023-06-19T18:29:35.627Z,21.73
2023-06-19T18:32:03.550Z,21.66
2023-06-19T18:34:31.394Z,21.60
2023-06-19T18:36:59.227Z,21.54
2023-06-19T18:39:27.045Z,21.70
2023-06-19T18:41:55.883Z,21.22
2023-06-19T18:44:23.662Z,20.99
2023-06-19T18:46:51.423Z,21.26
2023-06-19T18:49:19.203Z,21.23
2023-06-19T18:51:47.035Z,21.04
2023-06-19T18:54:14.827Z,20.87
2023-06-19T18:56:42.681Z,20.85
2023-06-19T18:59:10.444Z,20.61
2023-06-19T19:01:38.287Z,20.60
2023-06-19T19:04:06.086Z,20.44
2023-06-19T19:06:33.830Z,20.51
2023-06-19T19:09:01.563Z,20.58
2023-06-19T19:11:29.404Z,20.61
2023-06-19T19:13:57.113Z,20.54
2023-06-19T19:16:26.069Z,20.60
2023-06-19T19:18:53.894Z,20.35
2023-06-19T19:21:21.743Z,20.35
2023-06-19T19:23:49.522Z,20.22
2023-06-19T19:26:17.303Z,20.03
2023-06-19T19:28:45.126Z,19.29
2023-06-19T19:31:13.000Z,19.45
2023-06-19T19:33:40.834Z,19.62
2023-06-19T19:36:08.857Z,19.62
2023-06-19T19:38:36.679Z,19.60
2023-06-19T19:41:04.541Z,19.57
2023-06-19T19:43:32.607Z,19.03
2023-06-19T19:46:00.526Z,19.35
2023-06-19T19:48:28.312Z,19.54
2023-06-19T19:50:57.241Z,19.58
2023-06-19T19:53:25.050Z,19.56
2023-06-19T19:55:52.830Z,19.47
2023-06-19T19:58:20.714Z,19.50
2023-06-19T20:00:50.681Z,19.35
2023-06-19T20:03:18.764Z,19.41
2023-06-19T20:05:46.558Z,19.36
2023-06-19T20:08:14.420Z,19.23
2023-06-19T20:10:44.480Z,19.22
2023-06-19T20:13:12.921Z,19.42
2023-06-19T20:15:40.762Z,19.34
2023-06-19T20:18:08.604Z,19.23
2023-06-19T20:20:36.658Z,18.94
2023-06-19T20:23:04.524Z,18.73
2023-06-19T20:25:32.300Z,18.88
2023-06-19T20:28:08.065Z,19.05
2023-06-19T20:30:36.641Z,18.98
2023-06-19T20:33:04.628Z,18.87
2023-06-19T20:35:32.430Z,18.22
2023-06-19T20:38:00.429Z,18.20
2023-06-19T20:40:28.813Z,18.39
2023-06-19T20:42:56.746Z,17.90
2023-06-19T20:45:27.187Z,18.29
2023-06-19T20:47:55.348Z,18.41
2023-06-19T20:50:23.823Z,18.19
2023-06-19T20:52:52.000Z,17.73
2023-06-19T20:55:19.766Z,17.57
2023-06-19T20:57:47.597Z,17.66
2023-06-19T21:00:15.459Z,17.33
2023-06-19T21:02:43.345Z,17.81
2023-06-19T21:05:16.657Z,17.78
2023-06-19T21:07:45.387Z,17.50
2023-06-19T21:10:13.277Z,17.30
2023-06-19T21:12:41.407Z,17.73
2023-06-19T21:15:09.742Z,17.80
2023-06-19T21:17:39.820Z,17.77
2023-06-19T21:20:10.436Z,17.81
2023-06-19T21:22:39.013Z,17.69
2023-06-19T21:25:07.357Z,17.52
2023-06-19T21:27:35.210Z,17.05
2023-06-19T21:30:03.472Z,17.37
2023-06-19T21:32:31.381Z,17.49
2023-06-19T21:34:59.295Z,17.65
2023-06-19T21:37:27.103Z,17.50
2023-06-19T21:39:54.823Z,17.54
2023-06-19T21:42:22.620Z,17.75
2023-06-19T21:44:50.401Z,17.74
2023-06-19T21:47:18.182Z,17.72
2023-06-19T21:49:46.056Z,17.60
2023-06-19T21:52:13.859Z,17.66
2023-06-19T21:54:41.595Z,17.25
2023-06-19T21:57:10.132Z,17.21
2023-06-19T21:59:37.881Z,17.50
2023-06-19T22:02:05.997Z,17.48
2023-06-19T22:04:33.772Z,17.48
2023-06-19T22:07:01.495Z,17.15
2023-06-19T22:09:30.297Z,16.96
2023-06-19T22:11:58.128Z,17.16
2023-06-19T22:14:25.930Z,16.96
2023-06-19T22:16:53.703Z,16.98
2023-06-19T22:19:21.440Z,17.17
2023-06-19T22:21:49.256Z,16.72
2023-06-19T22:24:17.034Z,16.43
2023-06-19T22:26:44.861Z,16.95
2023-06-19T22:29:14.337Z,17.04
2023-06-19T22:31:42.232Z,16.99
2023-06-19T22:34:09.959Z,17.14
2023-06-19T22:36:37.718Z,17.01
2023-06-19T22:39:05.571Z,16.93
2023-06-19T22:41:33.773Z,16.59
2023-06-19T22:44:03.461Z,16.42
2023-06-19T22:46:31.297Z,16.36
2023-06-19T22:48:59.153Z,15.87
2023-06-19T22:51:26.898Z,16.03
2023-06-19T22:53:55.016Z,16.37
2023-06-19T22:56:22.757Z,16.42
2023-06-19T22:58:50.523Z,16.49
2023-06-19T23:01:26.248Z,16.13
2023-06-19T23:03:54.172Z,16.50
2023-06-19T23:06:21.980Z,16.06
2023-06-19T23:08:50.454Z,16.23
2023-06-19T23:11:18.245Z,16.35
2023-06-19T23:13:46.086Z,16.41
2023-06-19T23:16:13.903Z,16.20
2023-06-19T23:18:41.705Z,16.10
2023-06-19T23:21:09.504Z,15.56
2023-06-19T23:23:39.047Z,15.27
2023-06-19T23:26:07.186Z,15.30
2023-06-19T23:28:34.917Z,15.79
2023-06-19T23:31:02.610Z,15.66
2023-06-19T23:33:30.336Z,15.56
2023-06-19T23:35:58.079Z,15.82
2023-06-19T23:38:26.185Z,15.60
2023-06-19T23:40:55.089Z,15.79
2023-06-19T23:43:22.908Z,15.60
2023-06-19T23:45:52.286Z,15.41
2023-06-19T23:48:20.532Z,15.71
2023-06-19T23:50:48.262Z,15.66
2023-06-19T23:53:16.072Z,15.72
2023-06-19T23:55:43.870Z,15.84
2023-06-19T23:58:11.932Z,15.52
